Agate, Nebraska
Current Conditions -  °F | °C
As of 12:53 PM on Sunday 23 Nov 2014 (Local Time) from KTOR Reporting Station
Broken Clouds Broken Clouds  
Wind Chill: 31°   Ceiling: 6000
Heat Index: 42°   Visibility: 10mi
Dew Point: 12°   Wind: 30mph
Humidity: 29%   Direction: 320°NW
Pressure: 29.78"   Gusts: 39mph
Location:  42.42°N, 103.79°W
Report Text: KTOR 231953Z AUTO 32026G34KT 10SM BKN060 06/M11 A2978 RMK AO2 PK WND 32034/1952 SLP090 T00561111
Loading
Personal Weather Stations






























Interactive Weather Map New forecast layout! Learn more

10-Day Weather Forecast

Advertisements
Track Severe Weather on mobile